»·PEaware :: N1507D KSNA-KSNA

N1507D :: KSNA-KSNA

FLIGHT INFORMATION

Flight Status: Arrived
Operator: Privately registered:
United States
More flights under this callsign
Pilot: Fabio L. (11512)
Aircraft: CESSNA 172 SKYHAWK
(C172)
More flights by this aircraft type
Origin: KSNA John Wayne-Orange Co
United States
Destination: KSNA John Wayne-Orange Co
United States
More flights between these airports :: More routes between these airports
Route: SLI
File this flight plan on PilotEdge
Remarks: I-1
Altitude:
(Current/Filed)
3,000ft
Speed:
(Current/Filed)
107kts
Departed: 08-Nov-18 01:13 PM
Arrived: 08-Nov-18 01:45 PM
Distance/Time
Traveled:
0nm/0:32
Distance/Time
To Go:
Arrived

Flight Plot

Page will automatically refresh every two minutes.


Map Options




Map Legend


Flown Route
Filed Route
Departure Airport
Arrival Airport
Navaid (VOR, NDB)
Fix

Horizontal Profiles

Position Reports

Time Latitude Longitude Heading Altitude Ground
Speed
08-Nov-18 12:55 33.675730 -117.871244 39 60ft 0kts
08-Nov-18 12:56 33.675730 -117.871244 39 60ft 0kts
08-Nov-18 12:57 33.675730 -117.871244 39 60ft 0kts
08-Nov-18 12:58 33.675730 -117.871244 39 60ft 0kts
08-Nov-18 12:59 33.675730 -117.871244 39 60ft 0kts
08-Nov-18 13:00 33.675730 -117.871244 39 60ft 0kts
08-Nov-18 13:01 33.675730 -117.871244 39 60ft 0kts
08-Nov-18 13:02 33.675730 -117.871244 39 60ft 0kts
08-Nov-18 13:03 33.675730 -117.871244 39 60ft 0kts
08-Nov-18 13:04 33.675730 -117.871244 39 60ft 0kts
08-Nov-18 13:05 33.675730 -117.871244 39 60ft 0kts
08-Nov-18 13:06 33.675730 -117.871244 39 60ft 0kts
08-Nov-18 13:07 33.675730 -117.871244 39 60ft 0kts
08-Nov-18 13:08 33.675730 -117.871244 39 60ft 0kts
08-Nov-18 13:09 33.675730 -117.871244 39 60ft 0kts
08-Nov-18 13:10 33.675730 -117.871244 39 60ft 0kts
08-Nov-18 13:11 33.675730 -117.871244 39 60ft 0kts
08-Nov-18 13:12 33.675867 -117.870623 59 60ft 11kts
08-Nov-18 13:13 33.679300 -117.868156 19 60ft 17kts
08-Nov-18 13:14 33.681230 -117.866469 117 60ft 0kts
08-Nov-18 13:15 33.680779 -117.865697 162 60ft 5kts
08-Nov-18 13:16 33.668274 -117.876371 230 511ft 74kts
08-Nov-18 13:17 33.654905 -117.900267 235 1039ft 93kts
08-Nov-18 13:18 33.640205 -117.925733 235 1534ft 92kts
08-Nov-18 13:19 33.625441 -117.950737 235 1988ft 95kts
08-Nov-18 13:20 33.607681 -117.980778 235 2223ft 114kts
08-Nov-18 13:21 33.589823 -118.010682 235 2806ft 97kts
08-Nov-18 13:22 33.574125 -118.036405 235 2993ft 104kts
08-Nov-18 13:23 33.562212 -118.068363 301 2985ft 116kts
08-Nov-18 13:24 33.590344 -118.068748 13 2980ft 93kts
08-Nov-18 13:25 33.611899 -118.059519 23 2984ft 75kts
08-Nov-18 13:26 33.632468 -118.047877 23 2995ft 94kts
08-Nov-18 13:27 33.657715 -118.033546 23 2990ft 105kts
08-Nov-18 13:28 33.684614 -118.018134 23 2989ft 109kts
08-Nov-18 13:29 33.711794 -118.002391 23 2989ft 112kts
08-Nov-18 13:30 33.740068 -117.985839 23 2988ft 114kts
08-Nov-18 13:31 33.766809 -117.969953 23 2985ft 100kts
08-Nov-18 13:32 33.790796 -117.955346 23 2986ft 94kts
08-Nov-18 13:33 33.813827 -117.941107 23 2985ft 93kts
08-Nov-18 13:34 33.836663 -117.926851 23 2984ft 92kts
08-Nov-18 13:35 33.859224 -117.912010 44 2978ft 95kts
08-Nov-18 13:36 33.859465 -117.880507 95 2983ft 97kts
08-Nov-18 13:37 33.857650 -117.847562 87 2985ft 103kts
08-Nov-18 13:38 33.859489 -117.812022 85 2983ft 109kts
08-Nov-18 13:39 33.861301 -117.775045 85 2982ft 112kts
08-Nov-18 13:40 33.841135 -117.761220 223 2982ft 125kts
08-Nov-18 13:41 33.815926 -117.781951 211 2944ft 96kts
08-Nov-18 13:42 33.793283 -117.796647 207 2490ft 93kts
08-Nov-18 13:43 33.769775 -117.810838 204 2000ft 97kts
08-Nov-18 13:44 33.744656 -117.825524 204 1468ft 106kts
08-Nov-18 13:45 33.720458 -117.841762 207 957ft 82kts
08-Nov-18 13:46 33.702373 -117.852540 206 647ft 75kts
08-Nov-18 13:47 33.685584 -117.862736 206 201ft 58kts
08-Nov-18 13:48 33.675722 -117.869584 347 60ft 11kts
08-Nov-18 13:49 33.675974 -117.869836 301 60ft 0kts
08-Nov-18 13:50 33.676025 -117.869944 295 60ft 6kts
08-Nov-18 13:51 33.675836 -117.871060 214 60ft 0kts
08-Nov-18 13:52 33.675836 -117.871060 214 60ft 0kts

Navigation Log

Ident Type
1. KSNA Airport
2. SLI Navaid
3. KSNA Airport